Time;durP1;ratioP1;P1;durP2;ratioP2;P2;SDS_P1;SDS_P2;PMS_P1;PMS_P2;Temp;Humidity;BMP_temperature;BMP_pressure;BME280_temperature;BME280_humidity;BME280_pressure;Samples;Min_cycle;Max_cycle;Signal;HPM_P1;HPM_P2
2023/10/03 00:00:31;;;;;;;28.83;20.95;;;17.60;99.90;;;;;;5032553;28;20049;-79
2023/10/03 00:03:01;;;;;;;30.45;20.55;;;17.60;99.90;;;;;;5032938;28;20091;-80
2023/10/03 00:05:29;;;;;;;35.45;21.98;;;17.60;99.90;;;;;;5032926;28;20037;-81
2023/10/03 00:08:00;;;;;;;29.17;20.45;;;17.60;99.90;;;;;;5032656;28;20041;-81
2023/10/03 00:10:28;;;;;;;30.60;21.70;;;17.60;99.90;;;;;;5032573;28;20096;-80
2023/10/03 00:12:54;;;;;;;31.85;23.23;;;17.60;99.90;;;;;;5031261;28;20095;-79
2023/10/03 00:15:24;;;;;;;32.30;21.08;;;17.60;99.90;;;;;;5032541;28;20383;-79
2023/10/03 00:17:51;;;;;;;27.13;18.63;;;17.60;99.90;;;;;;5032609;28;20121;-80
2023/10/03 00:20:18;;;;;;;33.25;20.15;;;17.60;99.90;;;;;;5032882;28;20093;-79
2023/10/03 00:22:44;;;;;;;30.75;20.92;;;17.50;99.90;;;;;;5033087;28;20095;-80
2023/10/03 00:25:17;;;;;;;29.90;21.50;;;17.50;99.90;;;;;;5032370;28;20099;-80
2023/10/03 00:27:49;;;;;;;36.08;19.98;;;17.50;99.90;;;;;;5032157;28;20511;-78
2023/10/03 00:30:19;;;;;;;32.80;23.33;;;17.50;99.90;;;;;;5032470;28;20490;-81
2023/10/03 00:32:46;;;;;;;29.55;20.63;;;17.50;99.90;;;;;;5032238;28;20045;-81
2023/10/03 00:35:12;;;;;;;34.60;21.63;;;17.50;99.90;;;;;;5032691;28;20111;-80
2023/10/03 00:37:39;;;;;;;29.20;20.20;;;17.50;99.90;;;;;;5031610;28;20045;-80
2023/10/03 00:40:16;;;;;;;37.65;22.92;;;17.50;99.90;;;;;;5032411;28;20386;-78
2023/10/03 00:42:46;;;;;;;35.50;22.45;;;17.50;99.90;;;;;;5032459;28;20053;-81
2023/10/03 00:45:13;;;;;;;33.80;22.55;;;17.50;99.90;;;;;;5032762;28;20126;-81
2023/10/03 00:47:39;;;;;;;37.03;23.10;;;17.50;99.90;;;;;;5032306;28;20054;-79
2023/10/03 00:50:06;;;;;;;35.35;21.73;;;17.40;99.90;;;;;;5032209;28;20049;-80
2023/10/03 00:52:32;;;;;;;32.72;21.75;;;17.50;99.90;;;;;;5032500;28;20042;-80
2023/10/03 00:55:00;;;;;;;32.78;22.88;;;17.50;99.90;;;;;;5031073;28;20045;-80
2023/10/03 00:57:26;;;;;;;29.70;21.67;;;17.50;99.90;;;;;;5032384;28;20433;-79
2023/10/03 00:59:56;;;;;;;35.78;23.50;;;17.40;99.90;;;;;;5031865;28;20041;-80
2023/10/03 01:02:22;;;;;;;34.97;23.25;;;17.40;99.90;;;;;;5031954;28;20430;-80
2023/10/03 01:04:47;;;;;;;36.05;22.33;;;17.40;99.90;;;;;;5032494;28;20045;-80
2023/10/03 01:07:13;;;;;;;31.85;22.08;;;17.40;99.90;;;;;;5032071;28;20049;-80
2023/10/03 01:09:39;;;;;;;33.72;22.67;;;17.40;99.90;;;;;;5016121;28;20049;-80
2023/10/03 01:12:04;;;;;;;37.60;22.40;;;17.40;99.90;;;;;;5035774;28;20046;-80
2023/10/03 01:14:34;;;;;;;33.17;21.45;;;17.30;99.90;;;;;;5035869;28;20515;-78
2023/10/03 01:17:02;;;;;;;41.47;23.73;;;17.30;99.90;;;;;;5036104;28;20056;-79
2023/10/03 01:19:30;;;;;;;29.13;20.98;;;17.30;99.90;;;;;;5035423;28;20402;-79
2023/10/03 01:21:57;;;;;;;32.75;21.75;;;17.30;99.90;;;;;;5036030;28;20132;-78
2023/10/03 01:24:25;;;;;;;35.00;22.10;;;17.30;99.90;;;;;;5034516;28;20057;-81
2023/10/03 01:26:53;;;;;;;34.20;21.08;;;17.30;99.90;;;;;;5035810;28;20520;-78
2023/10/03 01:29:20;;;;;;;33.97;21.48;;;17.30;99.90;;;;;;5036427;28;20212;-80
2023/10/03 01:31:50;;;;;;;31.27;18.92;;;17.30;99.90;;;;;;5035616;28;20057;-80
2023/10/03 01:34:15;;;;;;;33.28;19.50;;;17.30;99.90;;;;;;5035678;28;20103;-79
2023/10/03 01:36:42;;;;;;;35.60;21.02;;;17.30;99.90;;;;;;5035412;28;20049;-79
2023/10/03 01:39:08;;;;;;;29.70;19.48;;;17.40;99.90;;;;;;5035889;28;20059;-79
2023/10/03 01:41:37;;;;;;;34.00;19.23;;;17.40;99.90;;;;;;5035293;28;20514;-82
2023/10/03 01:44:03;;;;;;;33.47;19.23;;;17.40;99.90;;;;;;5034604;28;20092;-79
2023/10/03 01:46:29;;;;;;;30.35;18.67;;;17.40;99.90;;;;;;5034836;28;20512;-81
2023/10/03 01:48:57;;;;;;;33.97;19.95;;;17.40;99.90;;;;;;5035220;28;20251;-81
2023/10/03 01:51:23;;;;;;;30.83;18.75;;;17.50;99.90;;;;;;5035063;28;20080;-79
2023/10/03 01:53:48;;;;;;;31.63;19.92;;;17.50;99.90;;;;;;5035062;28;20135;-79
2023/10/03 01:56:14;;;;;;;31.15;18.20;;;17.50;99.90;;;;;;5034891;28;20057;-80
2023/10/03 01:58:40;;;;;;;29.67;18.40;;;17.50;99.90;;;;;;5035343;28;20037;-80
2023/10/03 02:01:05;;;;;;;28.20;18.02;;;17.60;99.90;;;;;;5034957;28;20058;-76
2023/10/03 02:03:32;;;;;;;31.13;18.42;;;17.60;99.90;;;;;;5035032;28;20033;-78
2023/10/03 02:05:58;;;;;;;28.58;17.35;;;17.70;99.90;;;;;;5033819;28;20099;-78
2023/10/03 02:08:25;;;;;;;31.77;18.17;;;17.60;99.90;;;;;;5034674;28;20052;-79
2023/10/03 02:10:52;;;;;;;31.88;18.90;;;17.70;99.90;;;;;;5034737;28;20041;-80
2023/10/03 02:13:19;;;;;;;31.10;17.90;;;17.70;99.90;;;;;;5034952;28;20041;-79
2023/10/03 02:15:47;;;;;;;30.58;19.02;;;17.80;99.90;;;;;;5035015;28;20060;-80
2023/10/03 02:18:13;;;;;;;32.85;18.92;;;17.70;99.90;;;;;;5034656;28;20053;-80
2023/10/03 02:20:47;;;;;;;30.25;18.33;;;17.80;99.90;;;;;;5034410;28;20057;-80
2023/10/03 02:23:20;;;;;;;29.98;17.40;;;17.80;99.90;;;;;;5034314;28;20601;-79
2023/10/03 02:25:48;;;;;;;31.02;19.00;;;17.80;99.90;;;;;;5033365;28;20053;-80
2023/10/03 02:28:16;;;;;;;28.90;18.35;;;17.80;99.90;;;;;;5034556;28;20053;-79
2023/10/03 02:30:43;;;;;;;29.83;17.58;;;17.80;99.90;;;;;;5034645;28;20041;-80
2023/10/03 02:33:12;;;;;;;26.40;17.65;;;17.80;99.90;;;;;;5034607;28;20049;-79
2023/10/03 02:35:39;;;;;;;32.97;18.42;;;17.90;99.90;;;;;;5034106;28;20553;-79
2023/10/03 02:38:10;;;;;;;33.35;17.70;;;17.90;99.90;;;;;;5034550;28;20052;-80
2023/10/03 02:40:36;;;;;;;32.70;18.27;;;17.90;99.90;;;;;;5034242;28;20462;-79
2023/10/03 02:43:02;;;;;;;27.25;17.88;;;17.90;99.90;;;;;;5033996;28;20541;-78
2023/10/03 02:45:28;;;;;;;30.83;17.38;;;17.90;99.90;;;;;;5034382;28;20100;-79
2023/10/03 02:48:13;;;;;;;29.58;18.33;;;17.90;99.90;;;;;;5034698;28;20049;-79
2023/10/03 02:50:41;;;;;;;31.80;17.75;;;17.80;99.90;;;;;;5034667;28;20056;-78
2023/10/03 02:53:11;;;;;;;31.17;16.88;;;17.90;99.90;;;;;;5032904;28;20042;-80
2023/10/03 02:55:37;;;;;;;29.45;19.05;;;17.80;99.90;;;;;;5034365;28;20503;-80
2023/10/03 02:58:04;;;;;;;28.70;18.35;;;17.90;99.90;;;;;;5034537;28;20045;-79
2023/10/03 03:00:30;;;;;;;28.85;18.52;;;17.80;99.90;;;;;;5034315;28;20072;-79
2023/10/03 03:02:56;;;;;;;30.50;18.77;;;17.90;99.90;;;;;;5033818;28;20521;-78
2023/10/03 03:05:22;;;;;;;29.83;18.55;;;17.80;99.90;;;;;;5034021;28;20045;-79
2023/10/03 03:07:49;;;;;;;33.25;18.17;;;17.80;99.90;;;;;;5034325;28;20187;-78
2023/10/03 03:10:18;;;;;;;32.10;17.73;;;17.90;99.90;;;;;;5033998;28;20128;-79
2023/10/03 03:12:44;;;;;;;35.50;17.88;;;17.90;99.90;;;;;;5033482;28;20180;-79
2023/10/03 03:15:12;;;;;;;31.25;18.00;;;17.90;99.90;;;;;;5033733;28;20132;-79
2023/10/03 03:17:40;;;;;;;30.88;18.10;;;17.90;99.90;;;;;;5033502;28;20455;-79
2023/10/03 03:20:20;;;;;;;32.22;17.92;;;18.00;99.90;;;;;;5032585;28;20088;-78
2023/10/03 03:22:47;;;;;;;30.27;17.35;;;17.90;99.90;;;;;;5033491;28;20095;-79
2023/10/03 03:25:24;;;;;;;28.98;17.20;;;18.00;99.90;;;;;;5033628;28;20080;-81
2023/10/03 03:27:54;;;;;;;30.42;16.85;;;17.90;99.90;;;;;;5033360;28;20508;-79
2023/10/03 03:32:57;;;;;;;28.45;16.63;;;18.00;99.90;;;;;;5032378;28;20129;-79
2023/10/03 03:35:26;;;;;;;28.88;17.23;;;18.00;99.90;;;;;;5032134;28;20465;-78
2023/10/03 03:37:56;;;;;;;29.30;16.90;;;17.90;99.90;;;;;;5031852;28;20451;-79
2023/10/03 03:40:29;;;;;;;31.77;18.42;;;17.90;99.90;;;;;;5032918;28;20067;-79
2023/10/03 03:42:58;;;;;;;;;;;17.90;99.90;;;;;;5033140;28;20061;-79
2023/10/03 03:45:26;;;;;;;33.78;17.30;;;17.90;99.90;;;;;;5032654;28;19932;-79
2023/10/03 03:47:52;;;;;;;32.25;17.30;;;17.90;99.90;;;;;;5031838;28;20053;-80
2023/10/03 03:50:18;;;;;;;27.65;17.63;;;17.90;99.90;;;;;;5033287;28;20049;-78
2023/10/03 03:52:44;;;;;;;33.30;17.92;;;17.90;99.90;;;;;;5032643;28;20575;-78
2023/10/03 03:55:11;;;;;;;32.47;17.40;;;18.00;99.90;;;;;;5032588;28;20073;-79
2023/10/03 03:57:38;;;;;;;30.17;15.68;;;18.00;99.90;;;;;;5032587;28;20067;-78
2023/10/03 04:00:26;;;;;;;29.42;17.60;;;17.90;99.90;;;;;;5032795;28;20045;-78
2023/10/03 04:02:52;;;;;;;32.55;17.65;;;18.00;99.90;;;;;;5032607;28;20489;-79
2023/10/03 04:05:20;;;;;;;27.30;16.83;;;18.00;99.90;;;;;;5032615;28;20485;-80
2023/10/03 04:07:46;;;;;;;26.33;16.58;;;18.20;99.90;;;;;;5031233;28;20057;-77
2023/10/03 04:10:13;;;;;;;30.15;17.05;;;18.10;99.90;;;;;;5032344;28;20041;-79
2023/10/03 04:12:43;;;;;;;26.75;15.38;;;18.10;99.90;;;;;;5031034;28;20046;-79
2023/10/03 04:15:10;;;;;;;30.70;17.13;;;18.10;99.90;;;;;;5032477;28;20049;-78
2023/10/03 04:17:36;;;;;;;26.55;16.55;;;18.00;99.90;;;;;;5032398;28;20180;-78
2023/10/03 04:20:12;;;;;;;39.05;18.83;;;18.00;99.90;;;;;;5031417;28;20063;-79
2023/10/03 04:22:37;;;;;;;29.25;16.65;;;18.00;99.90;;;;;;5032374;28;20038;-80
2023/10/03 04:25:04;;;;;;;24.90;15.77;;;18.00;99.90;;;;;;5032501;28;20068;-79
2023/10/03 04:27:32;;;;;;;28.58;15.45;;;18.10;99.90;;;;;;5032289;28;20064;-79
2023/10/03 04:29:58;;;;;;;24.98;15.00;;;18.10;99.90;;;;;;5032120;28;20061;-80
2023/10/03 04:32:23;;;;;;;26.60;15.23;;;18.10;99.90;;;;;;5032114;28;20049;-76
2023/10/03 04:34:49;;;;;;;29.75;14.85;;;18.10;99.90;;;;;;5032048;28;20064;-79
2023/10/03 04:37:16;;;;;;;25.63;16.15;;;18.20;99.90;;;;;;5032126;28;20065;-80
2023/10/03 04:39:42;;;;;;;27.73;16.23;;;18.20;99.90;;;;;;5032157;28;20146;-80
2023/10/03 04:42:08;;;;;;;27.48;15.05;;;18.30;99.90;;;;;;5032359;28;20045;-79
2023/10/03 04:44:34;;;;;;;26.50;14.63;;;18.30;99.90;;;;;;5035187;28;20057;-77
2023/10/03 04:47:00;;;;;;;25.42;15.48;;;18.30;99.90;;;;;;5034464;28;20492;-78
2023/10/03 04:49:25;;;;;;;23.33;14.45;;;18.40;99.90;;;;;;5036175;28;20103;-79
2023/10/03 04:51:51;;;;;;;23.75;14.98;;;18.40;99.90;;;;;;5035945;28;20048;-79
2023/10/03 04:54:17;;;;;;;22.35;15.05;;;18.40;99.90;;;;;;5034723;28;20138;-79
2023/10/03 04:56:44;;;;;;;25.48;15.40;;;18.50;99.90;;;;;;5035931;28;20049;-79
2023/10/03 04:59:10;;;;;;;23.83;14.23;;;18.50;99.90;;;;;;5035944;28;20107;-79
2023/10/03 05:01:36;;;;;;;28.75;15.18;;;18.60;99.90;;;;;;5035799;28;20045;-78
2023/10/03 05:04:03;;;;;;;25.88;14.73;;;18.60;99.90;;;;;;5035785;28;20124;-80
2023/10/03 05:06:29;;;;;;;27.70;15.05;;;18.70;99.90;;;;;;5035997;28;20088;-80
2023/10/03 05:08:56;;;;;;;22.73;14.13;;;18.70;99.90;;;;;;5036219;28;20088;-78
2023/10/03 05:11:22;;;;;;;25.83;15.60;;;18.80;99.90;;;;;;5035604;28;20060;-79
2023/10/03 05:13:48;;;;;;;22.02;14.45;;;18.80;99.90;;;;;;5035466;28;20050;-78
2023/10/03 05:16:14;;;;;;;23.52;14.98;;;18.80;99.90;;;;;;5035807;28;20047;-79
2023/10/03 05:18:40;;;;;;;25.25;14.40;;;18.50;99.90;;;;;;5035922;28;20103;-79
2023/10/03 05:21:06;;;;;;;23.92;14.25;;;18.80;99.90;;;;;;5034695;28;20046;-80
2023/10/03 05:23:32;;;;;;;27.00;15.02;;;18.80;99.90;;;;;;5035597;28;20054;-80
2023/10/03 05:25:59;;;;;;;25.25;13.88;;;18.80;99.90;;;;;;5034717;28;20049;-76
2023/10/03 05:28:28;;;;;;;22.60;13.93;;;18.80;99.90;;;;;;5035958;28;20049;-79
2023/10/03 05:30:58;;;;;;;25.80;13.52;;;18.80;99.90;;;;;;5035636;28;20060;-78
2023/10/03 05:33:24;;;;;;;26.85;13.88;;;18.90;99.90;;;;;;5035208;28;20458;-77
2023/10/03 05:35:49;;;;;;;23.73;15.25;;;18.90;99.90;;;;;;5035241;28;20057;-80
2023/10/03 05:38:15;;;;;;;24.25;13.82;;;18.90;99.90;;;;;;5035200;28;20083;-81
2023/10/03 05:40:43;;;;;;;20.42;14.15;;;19.00;99.90;;;;;;5035261;28;20084;-81
2023/10/03 05:43:08;;;;;;;23.48;13.68;;;19.00;99.90;;;;;;5034734;28;20065;-78
2023/10/03 05:45:35;;;;;;;22.70;13.02;;;19.00;99.90;;;;;;5034997;28;20072;-78
2023/10/03 05:48:01;;;;;;;25.90;14.73;;;19.00;99.90;;;;;;5034792;28;20503;-80
2023/10/03 05:50:27;;;;;;;21.40;12.82;;;19.10;99.90;;;;;;5035360;28;20048;-80
2023/10/03 05:52:53;;;;;;;25.85;13.25;;;19.10;99.90;;;;;;5034817;28;20043;-80
2023/10/03 05:55:19;;;;;;;21.13;13.48;;;19.10;99.90;;;;;;5034263;28;20141;-78
2023/10/03 05:57:44;;;;;;;21.02;12.40;;;19.10;99.90;;;;;;5034931;28;20049;-80
2023/10/03 06:00:16;;;;;;;22.92;12.52;;;19.10;99.90;;;;;;5034760;28;20068;-78
2023/10/03 06:02:43;;;;;;;24.13;12.18;;;19.20;99.90;;;;;;5035404;28;20112;-81
2023/10/03 06:05:10;;;;;;;18.00;12.63;;;19.20;99.90;;;;;;5035361;28;20085;-79
2023/10/03 06:07:36;;;;;;;33.95;14.75;;;19.20;99.90;;;;;;5034880;28;20060;-81
2023/10/03 06:10:04;;;;;;;18.73;12.93;;;19.30;99.90;;;;;;5034308;28;20041;-82
2023/10/03 06:12:30;;;;;;;24.30;13.10;;;19.30;99.90;;;;;;5034938;28;20124;-80
2023/10/03 06:14:56;;;;;;;24.65;12.77;;;19.30;99.90;;;;;;5034462;28;20050;-80
2023/10/03 06:17:22;;;;;;;22.83;13.25;;;19.30;99.90;;;;;;5035152;28;20051;-82
2023/10/03 06:19:48;;;;;;;22.77;14.25;;;19.30;99.90;;;;;;5033686;28;20088;-80
2023/10/03 06:22:13;;;;;;;24.30;13.52;;;19.30;99.90;;;;;;5034355;28;20434;-77
2023/10/03 06:24:39;;;;;;;25.13;13.20;;;19.40;99.90;;;;;;5034521;28;20051;-78
2023/10/03 06:27:08;;;;;;;21.83;13.15;;;19.30;99.90;;;;;;5034424;28;20049;-80
2023/10/03 06:29:40;;;;;;;17.45;11.05;;;19.30;99.90;;;;;;5034324;28;20448;-79
2023/10/03 06:32:05;;;;;;;21.90;11.73;;;19.30;99.90;;;;;;5034395;28;20518;-81
2023/10/03 06:34:31;;;;;;;18.90;10.68;;;19.30;99.90;;;;;;5034163;28;20034;-79
2023/10/03 06:36:57;;;;;;;16.75;10.32;;;19.30;99.90;;;;;;5034280;28;20096;-81
2023/10/03 06:39:23;;;;;;;15.80;10.32;;;19.30;99.90;;;;;;5034251;28;20180;-80
2023/10/03 06:41:49;;;;;;;20.55;10.05;;;19.30;99.90;;;;;;5034085;28;20048;-79
2023/10/03 06:44:15;;;;;;;23.13;10.20;;;19.20;99.90;;;;;;5033637;28;20143;-80
2023/10/03 06:46:42;;;;;;;17.50;9.30;;;19.30;99.90;;;;;;5034267;28;20053;-80
2023/10/03 06:49:10;;;;;;;15.20;9.30;;;19.30;99.90;;;;;;5032936;28;20099;-80
2023/10/03 06:51:36;;;;;;;14.10;8.63;;;19.30;99.90;;;;;;5032850;28;20364;-80
2023/10/03 06:54:03;;;;;;;17.10;8.88;;;19.30;99.90;;;;;;5032880;28;20060;-81
2023/10/03 06:56:32;;;;;;;17.42;9.88;;;19.30;99.90;;;;;;5033556;28;20531;-79
2023/10/03 06:59:02;;;;;;;15.85;8.77;;;19.30;99.90;;;;;;5033088;28;20072;-81
2023/10/03 07:01:27;;;;;;;15.68;9.15;;;19.30;99.90;;;;;;5033783;28;20053;-81
2023/10/03 07:03:54;;;;;;;18.75;9.57;;;19.30;99.90;;;;;;5033753;28;20045;-79
2023/10/03 07:06:20;;;;;;;14.10;8.02;;;19.30;99.90;;;;;;5033283;28;20049;-79
2023/10/03 07:08:46;;;;;;;18.85;7.88;;;19.20;99.90;;;;;;5033706;28;20097;-79
2023/10/03 07:11:16;;;;;;;17.80;7.47;;;19.20;99.90;;;;;;5032346;28;20557;-80
2023/10/03 07:13:43;;;;;;;12.82;7.68;;;19.20;99.90;;;;;;5033888;28;20163;-80
2023/10/03 07:16:09;;;;;;;13.93;7.47;;;19.10;99.90;;;;;;5034024;28;20134;-79
2023/10/03 07:18:35;;;;;;;11.38;6.97;;;19.00;99.90;;;;;;5033668;28;20060;-80
2023/10/03 07:21:03;;;;;;;14.65;7.38;;;18.90;99.90;;;;;;5033358;28;20164;-81
2023/10/03 07:23:29;;;;;;;14.27;7.60;;;18.90;99.90;;;;;;5032659;28;20049;-78
2023/10/03 07:25:55;;;;;;;13.32;6.88;;;18.80;99.90;;;;;;5033758;28;20080;-79
2023/10/03 07:28:27;;;;;;;13.38;7.28;;;18.80;99.90;;;;;;5090061;27;20439;-81
2023/10/03 07:30:53;;;;;;;16.40;7.25;;;18.70;99.90;;;;;;5077460;28;20209;-77
2023/10/03 07:33:22;;;;;;;11.75;6.57;;;18.40;99.90;;;;;;5090209;28;20835;-79
2023/10/03 07:35:48;;;;;;;13.15;7.45;;;18.70;99.90;;;;;;5077517;28;20048;-80
2023/10/03 07:38:14;;;;;;;13.48;6.03;;;18.70;99.90;;;;;;5090365;28;20051;-78
2023/10/03 07:40:43;;;;;;;14.25;7.78;;;18.70;99.90;;;;;;5077497;28;20099;-80
2023/10/03 07:43:16;;;;;;;12.23;6.05;;;18.60;99.90;;;;;;5077321;28;20048;-78
2023/10/03 07:45:42;;;;;;;;;;;18.60;99.90;;;;;;5093779;28;20083;-79
2023/10/03 07:48:12;;;;;;;11.63;7.07;;;18.50;99.90;;;;;;5097151;28;19927;-80
2023/10/03 07:50:37;;;;;;;14.88;7.68;;;18.50;99.90;;;;;;5114679;27;20147;-80
2023/10/03 07:53:11;;;;;;;11.32;6.80;;;18.50;99.90;;;;;;5085085;28;20713;-81
2023/10/03 07:55:39;;;;;;;15.32;7.72;;;18.40;99.90;;;;;;5090048;28;20347;-83
2023/10/03 07:58:05;;;;;;;17.00;7.30;;;18.40;99.90;;;;;;5079145;28;20906;-87
2023/10/03 08:00:31;;;;;;;11.20;6.40;;;18.30;99.90;;;;;;5078193;28;20056;-84
2023/10/03 08:02:58;;;;;;;11.55;6.18;;;18.20;99.90;;;;;;5088480;28;20578;-81
2023/10/03 08:05:27;;;;;;;13.40;6.72;;;18.20;99.90;;;;;;5077331;28;20044;-83
2023/10/03 08:07:56;;;;;;;9.88;5.82;;;18.20;99.90;;;;;;5075184;28;20489;-84
2023/10/03 08:10:24;;;;;;;14.27;7.60;;;18.10;99.90;;;;;;5074332;28;20075;-83
2023/10/03 08:12:52;;;;;;;13.05;6.70;;;18.10;99.90;;;;;;5077817;28;20128;-83
2023/10/03 08:15:20;;;;;;;11.18;7.22;;;18.10;99.90;;;;;;5087509;28;20109;-83
2023/10/03 08:17:53;;;;;;;9.05;5.88;;;18.10;99.90;;;;;;5086766;28;20083;-84
2023/10/03 08:20:20;;;;;;;11.95;7.05;;;18.20;99.90;;;;;;5092436;28;20599;-84
2023/10/03 08:22:52;;;;;;;8.65;5.70;;;18.20;99.90;;;;;;5094159;28;20054;-81
2023/10/03 08:25:22;;;;;;;10.07;6.55;;;18.10;99.90;;;;;;5092037;28;20055;-84
2023/10/03 08:27:49;;;;;;;12.07;5.65;;;18.10;99.90;;;;;;5083077;28;20106;-85
2023/10/03 08:30:29;;;;;;;9.77;5.30;;;18.60;99.90;;;;;;5086501;28;20047;-83
2023/10/03 08:33:04;;;;;;;10.70;5.72;;;17.90;99.90;;;;;;5082641;28;20044;-84
2023/10/03 08:35:37;;;;;;;8.88;4.93;;;17.80;99.90;;;;;;5085082;28;20551;-79
2023/10/03 08:38:12;;;;;;;7.47;4.32;;;17.70;99.90;;;;;;5083467;28;20047;-81
2023/10/03 08:40:44;;;;;;;7.03;3.50;;;17.60;99.90;;;;;;5071919;28;20127;-81
2023/10/03 08:43:11;;;;;;;6.37;3.53;;;17.50;99.90;;;;;;5074385;28;20368;-76
2023/10/03 08:45:53;;;;;;;7.10;3.20;;;17.40;99.90;;;;;;5074362;28;20290;-78
2023/10/03 08:48:26;;;;;;;7.35;3.20;;;17.40;99.90;;;;;;5075177;28;20890;-80
2023/10/03 08:50:56;;;;;;;5.47;2.85;;;17.50;99.90;;;;;;5075165;28;20052;-83
2023/10/03 08:53:27;;;;;;;7.13;2.90;;;17.40;99.90;;;;;;5078384;28;20134;-80
2023/10/03 08:55:57;;;;;;;4.72;2.65;;;17.50;99.90;;;;;;5066246;28;20052;-81
2023/10/03 08:58:25;;;;;;;9.23;3.13;;;17.40;99.90;;;;;;5067539;28;20306;-78
2023/10/03 09:01:02;;;;;;;5.57;2.25;;;17.50;99.90;;;;;;5072094;28;20053;-80
2023/10/03 09:03:42;;;;;;;5.68;1.80;;;17.40;99.90;;;;;;5065702;28;20472;-78
2023/10/03 09:06:07;;;;;;;5.50;2.75;;;17.40;99.90;;;;;;5068217;28;20076;-79
2023/10/03 09:08:33;;;;;;;6.20;2.03;;;17.50;99.90;;;;;;5069648;28;20666;-80
2023/10/03 09:11:00;;;;;;;5.53;1.77;;;17.60;99.90;;;;;;5073514;28;20052;-80
2023/10/03 09:13:28;;;;;;;6.90;1.90;;;17.60;99.90;;;;;;5071520;28;20072;-79
2023/10/03 09:16:02;;;;;;;6.85;2.17;;;17.60;99.90;;;;;;5070836;28;20052;-80
2023/10/03 09:18:29;;;;;;;3.65;1.70;;;17.60;99.90;;;;;;5075977;28;20044;-78
2023/10/03 09:20:59;;;;;;;2.22;1.38;;;16.90;99.90;;;;;;5064272;28;20139;-79
2023/10/03 09:23:27;;;;;;;2.10;0.98;;;16.90;99.90;;;;;;5065915;28;20105;-83
2023/10/03 09:25:55;;;;;;;1.85;1.30;;;17.10;99.90;;;;;;5072281;28;20545;-80
2023/10/03 09:28:35;;;;;;;3.38;1.10;;;17.00;99.90;;;;;;5077203;28;20064;-81
2023/10/03 09:31:02;;;;;;;5.43;2.13;;;16.90;99.90;;;;;;5062356;28;20048;-86
2023/10/03 09:33:28;;;;;;;4.63;1.10;;;16.80;99.90;;;;;;5067142;28;20043;-88
2023/10/03 09:36:01;;;;;;;1.63;1.05;;;16.50;99.90;;;;;;5072741;28;20048;-81
2023/10/03 09:38:42;;;;;;;;;;;16.50;99.90;;;;;;5109735;27;20509;-81
2023/10/03 09:41:09;;;;;;;4.13;1.20;;;16.40;99.90;;;;;;5068542;28;19924;-80
2023/10/03 09:43:35;;;;;;;5.35;2.38;;;16.40;99.90;;;;;;5071310;28;20063;-82
2023/10/03 09:46:01;;;;;;;4.47;1.25;;;16.40;99.90;;;;;;5067233;28;20135;-82
2023/10/03 09:48:27;;;;;;;4.43;1.00;;;16.40;99.90;;;;;;5067634;28;20055;-81
2023/10/03 09:50:53;;;;;;;2.17;1.15;;;16.40;99.90;;;;;;5066025;28;20700;-81
2023/10/03 09:53:27;;;;;;;2.92;1.00;;;16.40;99.90;;;;;;5073319;28;20056;-79
2023/10/03 09:55:55;;;;;;;6.93;1.45;;;16.40;99.90;;;;;;5073111;28;20095;-80
2023/10/03 09:58:31;;;;;;;3.65;1.20;;;16.40;99.90;;;;;;5077662;28;20040;-82
2023/10/03 10:00:57;;;;;;;3.38;1.40;;;16.40;99.90;;;;;;5078447;28;20052;-80
2023/10/03 10:03:38;;;;;;;5.45;1.33;;;16.30;99.90;;;;;;5079175;28;20044;-80
2023/10/03 10:06:12;;;;;;;1.67;0.80;;;16.30;99.90;;;;;;5070469;28;20591;-81
2023/10/03 10:09:13;;;;;;;1.95;0.90;;;16.30;99.90;;;;;;5058336;28;20085;-80
2023/10/03 10:12:19;;;;;;;1.67;1.08;;;16.30;99.90;;;;;;5053015;28;20342;-81
2023/10/03 10:15:13;;;;;;;2.22;0.93;;;16.40;99.90;;;;;;5069994;28;20463;-80
2023/10/03 10:17:55;;;;;;;3.55;1.20;;;16.30;99.90;;;;;;5070545;28;20636;-82
2023/10/03 10:20:32;;;;;;;1.80;0.70;;;16.30;99.90;;;;;;5070141;28;20051;-80
2023/10/03 10:22:58;;;;;;;1.77;0.63;;;16.30;99.90;;;;;;5079019;28;20536;-82
2023/10/03 10:25:28;;;;;;;1.40;0.68;;;16.20;99.90;;;;;;5079220;28;20116;-79
2023/10/03 10:28:05;;;;;;;1.13;0.70;;;16.10;99.90;;;;;;5073017;28;20064;-81
2023/10/03 10:30:35;;;;;;;1.20;0.90;;;16.00;99.90;;;;;;5068445;28;20062;-85
2023/10/03 10:33:16;;;;;;;3.72;1.10;;;16.00;99.90;;;;;;5074111;28;20048;-85
2023/10/03 10:35:55;;;;;;;2.50;0.80;;;16.10;99.90;;;;;;5076302;28;20047;-82
2023/10/03 10:38:33;;;;;;;3.03;0.77;;;16.10;99.90;;;;;;5074334;28;20174;-81
2023/10/03 10:44:14;;;;;;;3.85;1.02;;;16.20;99.90;;;;;;5075566;28;20075;-80
2023/10/03 10:46:44;;;;;;;3.92;0.95;;;16.20;99.90;;;;;;5067035;28;20122;-82
2023/10/03 10:49:35;;;;;;;6.82;1.30;;;16.20;99.90;;;;;;5077729;28;20108;-82
2023/10/03 10:52:12;;;;;;;3.20;1.30;;;16.10;99.90;;;;;;5074404;28;20064;-81
2023/10/03 10:54:41;;;;;;;3.95;1.17;;;16.20;99.90;;;;;;5059135;28;20089;-81
2023/10/03 10:57:10;;;;;;;3.13;1.55;;;16.30;99.90;;;;;;5063671;28;20101;-82
2023/10/03 10:59:40;;;;;;;2.10;1.30;;;16.40;99.90;;;;;;5065114;28;20384;-82
2023/10/03 11:02:19;;;;;;;5.18;1.17;;;16.50;99.90;;;;;;5076597;28;20068;-83
2023/10/03 11:04:55;;;;;;;4.85;1.45;;;16.50;99.90;;;;;;5065194;28;20113;-81
2023/10/03 11:07:22;;;;;;;4.18;1.52;;;16.60;99.90;;;;;;5086245;28;20049;-78
2023/10/03 11:09:52;;;;;;;6.30;2.30;;;16.80;99.90;;;;;;5075235;28;20040;-81
2023/10/03 11:12:28;;;;;;;5.10;1.90;;;16.80;99.90;;;;;;5071801;28;20357;-83
2023/10/03 11:14:57;;;;;;;6.13;1.70;;;16.80;99.90;;;;;;5079494;28;20059;-83
2023/10/03 11:17:23;;;;;;;5.63;1.67;;;16.70;99.90;;;;;;5077611;28;20048;-82
2023/10/03 11:19:50;;;;;;;4.32;1.75;;;16.70;99.90;;;;;;5073478;28;20159;-80
2023/10/03 11:22:17;;;;;;;3.88;1.40;;;16.60;99.90;;;;;;5075600;28;20083;-80
2023/10/03 11:24:44;;;;;;;5.75;1.73;;;16.40;99.90;;;;;;5074412;28;20708;-83
2023/10/03 11:27:21;;;;;;;4.10;2.05;;;16.30;99.90;;;;;;5076638;28;20071;-80
2023/10/03 11:29:48;;;;;;;4.00;1.85;;;16.00;99.90;;;;;;5068307;28;20056;-81
2023/10/03 11:32:35;;;;;;;5.90;2.10;;;15.90;99.90;;;;;;5071782;28;20598;-82
2023/10/03 11:35:19;;;;;;;3.75;2.50;;;15.80;99.90;;;;;;5075157;28;20044;-83
2023/10/03 11:37:46;;;;;;;4.00;2.63;;;15.60;99.90;;;;;;5071147;28;20052;-80
2023/10/03 11:40:16;;;;;;;7.03;2.70;;;15.70;99.90;;;;;;5057420;28;20052;-82
2023/10/03 11:42:44;;;;;;;5.45;2.90;;;15.70;99.90;;;;;;5063087;28;20416;-82
2023/10/03 11:45:18;;;;;;;4.88;2.50;;;15.80;99.90;;;;;;5079730;28;20048;-79
2023/10/03 11:48:11;;;;;;;4.93;2.75;;;15.90;99.90;;;;;;5091750;27;20097;-81
2023/10/03 11:50:40;;;;;;;5.65;2.53;;;15.90;99.90;;;;;;5076167;28;20040;-80
2023/10/03 11:53:10;;;;;;;2.65;1.95;;;15.90;99.90;;;;;;5073737;28;20059;-80
2023/10/03 11:55:38;;;;;;;3.90;2.15;;;16.00;99.90;;;;;;5077047;28;20052;-80
2023/10/03 11:58:08;;;;;;;3.42;2.22;;;16.00;99.90;;;;;;5077500;28;20051;-81
2023/10/03 12:00:35;;;;;;;4.22;2.10;;;16.10;99.90;;;;;;5070517;28;20117;-81
2023/10/03 12:03:03;;;;;;;6.75;2.63;;;16.10;99.90;;;;;;5073172;28;20058;-80
2023/10/03 12:05:30;;;;;;;7.57;2.42;;;16.10;99.90;;;;;;5064733;28;20482;-82
2023/10/03 12:07:58;;;;;;;5.03;2.58;;;16.20;99.90;;;;;;5065549;28;20074;-83
2023/10/03 12:10:25;;;;;;;5.90;2.83;;;16.20;99.90;;;;;;5070386;28;20079;-82
2023/10/03 12:12:51;;;;;;;3.63;2.53;;;16.20;99.90;;;;;;5072968;28;20492;-84
2023/10/03 12:15:18;;;;;;;4.40;2.47;;;16.20;99.90;;;;;;5081410;28;20054;-84
2023/10/03 12:17:48;;;;;;;7.25;3.17;;;16.30;99.90;;;;;;5072898;28;20075;-82
2023/10/03 12:20:16;;;;;;;6.13;2.90;;;16.20;99.90;;;;;;5076828;28;20125;-83
2023/10/03 12:22:53;;;;;;;4.28;2.65;;;16.20;99.90;;;;;;5064074;28;20055;-85
2023/10/03 12:25:21;;;;;;;8.20;3.85;;;16.10;99.90;;;;;;5070221;28;20104;-82
2023/10/03 12:27:47;;;;;;;4.15;2.70;;;16.00;99.90;;;;;;5081255;28;20116;-83
2023/10/03 12:30:15;;;;;;;6.80;3.03;;;16.00;99.90;;;;;;5071988;28;20579;-85
2023/10/03 12:32:45;;;;;;;5.97;2.70;;;16.00;99.90;;;;;;5080724;28;20052;-83
2023/10/03 12:35:11;;;;;;;2.97;2.45;;;15.90;99.90;;;;;;5063641;28;20048;-82
2023/10/03 12:37:39;;;;;;;8.45;2.72;;;15.90;99.90;;;;;;5097543;27;20118;-82
2023/10/03 12:40:13;;;;;;;3.63;2.40;;;15.90;99.90;;;;;;5082906;28;20044;-83
2023/10/03 12:42:47;;;;;;;7.68;3.17;;;15.90;99.90;;;;;;5065361;28;20044;-84
2023/10/03 12:45:16;;;;;;;4.68;2.83;;;15.90;99.90;;;;;;5063324;28;20090;-86
2023/10/03 12:47:47;;;;;;;4.38;2.67;;;15.80;99.90;;;;;;5068040;28;20136;-84
2023/10/03 12:50:24;;;;;;;8.00;3.08;;;15.80;99.90;;;;;;5069809;28;20063;-86